createdAt,value
2018-11-05T00:00:04.301Z,17.1
2018-11-05T00:00:55.585Z,17.1
2018-11-05T00:01:45.927Z,17.1
2018-11-05T00:02:36.022Z,17.1
2018-11-05T00:03:26.047Z,17.1
2018-11-05T00:04:16.141Z,17.1
2018-11-05T00:05:06.048Z,17.1
2018-11-05T00:05:56.233Z,17.1
2018-11-05T00:06:45.920Z,17.1
2018-11-05T00:25:50.682Z,17.1
2018-11-05T00:26:41.176Z,17.1
2018-11-05T00:28:21.621Z,17.1
2018-11-05T00:29:12.079Z,17.1
2018-11-05T00:31:40.177Z,17.1
2018-11-05T00:37:31.333Z,17.1
2018-11-05T00:55:03.083Z,16.9
2018-11-05T00:55:52.837Z,16.9
2018-11-05T00:56:43.419Z,16.9
2018-11-05T00:57:34.529Z,16.9
2018-11-05T00:58:23.397Z,16.9
2018-11-05T01:00:03.638Z,16.9
2018-11-05T01:00:53.929Z,16.9
2018-11-05T01:01:44.679Z,16.9
2018-11-05T01:02:34.209Z,16.9
2018-11-05T01:03:23.293Z,16.9
2018-11-05T01:04:13.661Z,16.9
2018-11-05T01:05:04.709Z,16.9
2018-11-05T01:05:53.483Z,16.9
2018-11-05T01:06:44.146Z,16.9
2018-11-05T01:07:33.926Z,16.9
2018-11-05T01:08:24.501Z,16.9
2018-11-05T01:09:14.462Z,16.9
2018-11-05T01:10:19.586Z,16.9
2018-11-05T01:10:55.224Z,16.9
2018-11-05T01:11:45.321Z,16.9
2018-11-05T01:12:34.201Z,16.9
2018-11-05T01:13:24.843Z,16.9
2018-11-05T01:14:14.665Z,16.9
2018-11-05T01:15:05.096Z,16.9
2018-11-05T01:15:55.084Z,16.9
2018-11-05T01:16:45.461Z,16.9
2018-11-05T01:17:34.579Z,16.9
2018-11-05T01:18:26.218Z,16.9
2018-11-05T01:19:16.205Z,16.9
2018-11-05T01:20:05.629Z,16.9
2018-11-05T01:20:54.746Z,16.9
2018-11-05T01:21:45.840Z,16.9
2018-11-05T01:22:35.963Z,16.9
2018-11-05T01:23:26.293Z,16.9
2018-11-05T01:24:15.385Z,16.9
2018-11-05T01:25:04.794Z,16.9
2018-11-05T01:25:56.241Z,16.9
2018-11-05T01:26:45.598Z,16.9
2018-11-05T01:27:35.317Z,16.9
2018-11-05T01:28:25.800Z,16.9
2018-11-05T01:29:15.917Z,16.9
2018-11-05T01:30:05.927Z,16.9
2018-11-05T01:30:56.737Z,16.9
2018-11-05T01:31:45.816Z,16.9
2018-11-05T01:32:36.037Z,16.9
2018-11-05T01:33:25.870Z,16.9
2018-11-05T01:34:16.053Z,16.9
2018-11-05T01:35:05.490Z,16.9
2018-11-05T01:35:57.283Z,16.9
2018-11-05T01:36:46.367Z,16.9
2018-11-05T01:37:35.902Z,16.9
2018-11-05T01:38:26.949Z,16.9
2018-11-05T01:39:16.187Z,16.9
2018-11-05T01:40:06.342Z,16.9
2018-11-05T01:40:56.854Z,16.9
2018-11-05T01:41:46.934Z,16.9
2018-11-05T01:42:36.256Z,16.9
2018-11-05T01:43:26.554Z,16.9
2018-11-05T01:44:17.092Z,16.8
2018-11-05T01:45:06.021Z,16.9
2018-11-05T01:45:57.791Z,16.9
2018-11-05T01:46:47.403Z,16.8
2018-11-05T01:47:36.976Z,16.8
2018-11-05T01:48:26.793Z,16.8
2018-11-05T01:49:17.525Z,16.8
2018-11-05T01:50:06.925Z,16.8
2018-11-05T01:50:57.413Z,16.8
2018-11-05T01:51:48.227Z,16.8
2018-11-05T01:52:38.180Z,16.8
2018-11-05T01:53:27.853Z,16.8
2018-11-05T01:54:17.897Z,16.8
2018-11-05T01:55:07.223Z,16.8
2018-11-05T01:55:57.401Z,16.8
2018-11-05T01:56:48.642Z,16.8
2018-11-05T01:57:37.337Z,16.8
2018-11-05T01:58:29.290Z,16.8
2018-11-05T01:59:17.855Z,16.8
2018-11-05T02:00:08.587Z,16.8
2018-11-05T02:00:58.442Z,16.8
2018-11-05T02:01:48.973Z,16.8
2018-11-05T02:02:38.625Z,16.8
2018-11-05T02:03:27.967Z,16.8
2018-11-05T02:04:18.912Z,16.8
2018-11-05T02:05:08.222Z,16.8
2018-11-05T02:05:59.239Z,16.8
2018-11-05T02:06:48.840Z,16.8
2018-11-05T02:07:39.102Z,16.8
2018-11-05T02:08:28.370Z,16.8
2018-11-05T02:09:17.657Z,16.8
2018-11-05T02:10:09.232Z,16.8
2018-11-05T02:10:58.198Z,16.8
2018-11-05T02:11:49.744Z,16.8
2018-11-05T02:12:40.277Z,16.8
2018-11-05T02:13:30.834Z,16.8
2018-11-05T02:14:19.284Z,16.8
2018-11-05T02:15:09.424Z,16.8
2018-11-05T02:16:00.892Z,16.8
2018-11-05T02:16:49.784Z,16.8
2018-11-05T02:17:39.187Z,16.8
2018-11-05T02:18:29.142Z,16.8
2018-11-05T02:19:19.822Z,16.8
2018-11-05T02:20:10.186Z,16.8
2018-11-05T02:20:59.613Z,16.8
2018-11-05T02:21:49.251Z,16.8
2018-11-05T02:22:40.514Z,16.8
2018-11-05T02:23:29.941Z,16.8
2018-11-05T02:24:20.906Z,16.8
2018-11-05T02:25:09.466Z,16.8
2018-11-05T02:25:58.804Z,16.8
2018-11-05T02:26:51.677Z,16.8
2018-11-05T02:27:37.526Z,16.8
2018-11-05T02:28:29.388Z,16.8
2018-11-05T02:29:19.903Z,16.8
2018-11-05T02:30:09.737Z,16.8
2018-11-05T02:31:00.992Z,16.8
2018-11-05T02:31:51.028Z,16.8
2018-11-05T02:32:41.013Z,16.8
2018-11-05T02:33:29.739Z,16.7
2018-11-05T02:34:21.516Z,16.8
2018-11-05T02:35:09.703Z,16.8
2018-11-05T02:36:00.109Z,16.8
2018-11-05T02:36:51.671Z,16.8
2018-11-05T02:37:40.762Z,16.8
2018-11-05T02:38:30.855Z,16.8
2018-11-05T02:39:20.774Z,16.7
2018-11-05T02:40:11.286Z,16.7
2018-11-05T02:41:01.706Z,16.7
2018-11-05T02:41:50.754Z,16.7
2018-11-05T02:42:40.949Z,16.7
2018-11-05T02:43:31.995Z,16.7
2018-11-05T02:44:21.905Z,16.7
2018-11-05T02:45:11.065Z,16.7
2018-11-05T02:46:02.039Z,16.7
2018-11-05T02:46:51.203Z,16.7
2018-11-05T02:47:41.884Z,16.7
2018-11-05T02:48:31.417Z,16.6
2018-11-05T02:49:21.967Z,16.7
2018-11-05T02:50:11.774Z,16.7
2018-11-05T02:51:01.163Z,16.7
2018-11-05T02:51:51.087Z,16.7
2018-11-05T02:52:41.360Z,16.7
2018-11-05T02:53:33.439Z,16.7
2018-11-05T02:54:22.052Z,16.7
2018-11-05T02:55:11.365Z,16.7
2018-11-05T02:56:01.602Z,16.7
2018-11-05T02:56:52.360Z,16.7
2018-11-05T02:57:42.564Z,16.6
2018-11-05T02:58:32.623Z,16.7
2018-11-05T02:59:22.483Z,16.7
2018-11-05T03:00:11.747Z,16.7
2018-11-05T03:01:03.402Z,16.7
2018-11-05T03:01:51.970Z,16.6
2018-11-05T03:02:41.884Z,16.6
2018-11-05T03:03:33.942Z,16.6
2018-11-05T03:04:21.659Z,16.6
2018-11-05T03:05:13.084Z,16.7
2018-11-05T03:06:02.805Z,16.6
2018-11-05T03:06:53.119Z,16.6
2018-11-05T03:07:42.746Z,16.6
2018-11-05T03:08:33.013Z,16.6
2018-11-05T03:09:24.244Z,16.6
2018-11-05T03:10:13.012Z,16.6
2018-11-05T03:11:03.021Z,16.6
2018-11-05T03:11:53.693Z,16.6
2018-11-05T03:12:43.280Z,16.6
2018-11-05T03:13:33.668Z,16.6
2018-11-05T03:14:23.832Z,16.6
2018-11-05T03:15:13.698Z,16.6
2018-11-05T03:16:03.317Z,16.6
2018-11-05T03:16:53.910Z,16.6
2018-11-05T03:17:44.280Z,16.6
2018-11-05T03:18:35.078Z,16.6
2018-11-05T03:19:23.715Z,16.6
2018-11-05T03:20:13.304Z,16.6
2018-11-05T03:21:04.715Z,16.6
2018-11-05T03:21:54.915Z,16.6
2018-11-05T03:22:44.147Z,16.6
2018-11-05T03:23:35.205Z,16.6
2018-11-05T03:24:24.943Z,16.6
2018-11-05T03:25:14.186Z,16.6
2018-11-05T03:26:05.260Z,16.6
2018-11-05T03:26:54.693Z,16.6
2018-11-05T03:27:45.260Z,16.6
2018-11-05T03:28:35.908Z,16.6
2018-11-05T03:29:24.893Z,16.6
2018-11-05T03:30:15.947Z,16.6
2018-11-05T03:31:05.561Z,16.6
2018-11-05T03:31:54.661Z,16.6
2018-11-05T03:32:45.545Z,16.6
2018-11-05T03:33:35.348Z,16.6
2018-11-05T03:34:23.998Z,16.6
2018-11-05T03:35:15.323Z,16.6
2018-11-05T03:36:07.506Z,16.6
2018-11-05T03:36:56.497Z,16.6
2018-11-05T03:37:46.057Z,16.6
2018-11-05T03:38:35.832Z,16.6
2018-11-05T03:39:25.123Z,16.6
2018-11-05T03:40:16.490Z,16.6
2018-11-05T03:41:05.055Z,16.6
2018-11-05T03:41:55.402Z,16.6
2018-11-05T03:42:45.498Z,16.6
2018-11-05T03:43:35.685Z,16.6
2018-11-05T03:44:25.574Z,16.6
2018-11-05T03:45:15.938Z,16.6
2018-11-05T03:46:06.877Z,16.6
2018-11-05T03:46:56.818Z,16.5
2018-11-05T03:47:45.267Z,16.6
2018-11-05T03:48:36.228Z,16.6
2018-11-05T03:49:26.427Z,16.5
2018-11-05T03:50:16.424Z,16.6
2018-11-05T03:51:06.152Z,16.5
2018-11-05T03:51:56.247Z,16.6
2018-11-05T03:52:46.255Z,16.5
2018-11-05T03:53:35.893Z,16.5
2018-11-05T03:54:26.613Z,16.5
2018-11-05T03:55:16.472Z,16.5
2018-11-05T03:56:08.995Z,16.5
2018-11-05T03:56:57.407Z,16.5
2018-11-05T03:57:47.523Z,16.5
2018-11-05T03:58:35.861Z,16.5
2018-11-05T03:59:26.990Z,16.5
2018-11-05T04:00:18.219Z,16.5
2018-11-05T04:01:07.457Z,16.5
2018-11-05T04:01:57.221Z,16.5
2018-11-05T04:02:47.072Z,16.5
2018-11-05T04:03:37.791Z,16.5
2018-11-05T04:04:28.169Z,16.5
2018-11-05T04:05:17.956Z,16.5
2018-11-05T04:06:08.459Z,16.5
2018-11-05T04:06:58.009Z,16.5
2018-11-05T04:07:47.157Z,16.5
2018-11-05T04:08:37.818Z,16.5
2018-11-05T04:09:26.405Z,16.5
2018-11-05T04:10:16.146Z,16.5
2018-11-05T04:11:08.375Z,16.5
2018-11-05T04:11:57.757Z,16.5
2018-11-05T04:12:48.782Z,16.4
2018-11-05T04:13:38.236Z,16.5
2018-11-05T04:14:27.640Z,16.5
2018-11-05T04:15:19.980Z,16.4
2018-11-05T04:16:10.555Z,16.4
2018-11-05T04:16:58.425Z,16.4
2018-11-05T04:17:48.128Z,16.5
2018-11-05T04:18:36.797Z,16.4
2018-11-05T04:19:27.662Z,16.4
2018-11-05T04:20:18.760Z,16.5
2018-11-05T04:21:08.300Z,16.4
2018-11-05T04:21:58.697Z,16.4
2018-11-05T04:22:49.590Z,16.4
2018-11-05T04:23:39.077Z,16.4
2018-11-05T04:24:28.787Z,16.4
2018-11-05T04:25:18.655Z,16.4
2018-11-05T04:26:08.389Z,16.5
2018-11-05T04:26:57.942Z,16.4
2018-11-05T04:27:50.692Z,16.4
2018-11-05T04:28:39.184Z,16.4
2018-11-05T04:29:29.885Z,16.4
2018-11-05T04:30:17.864Z,16.4
2018-11-05T04:31:09.167Z,16.4
2018-11-05T04:31:58.014Z,16.4
2018-11-05T04:32:49.227Z,16.4
2018-11-05T04:33:39.672Z,16.4
2018-11-05T04:34:29.404Z,16.4
2018-11-05T04:35:19.457Z,16.4
2018-11-05T04:36:08.610Z,16.4
2018-11-05T04:54:12.950Z,16.4
2018-11-05T04:55:02.727Z,16.4
2018-11-05T04:55:52.117Z,16.4
2018-11-05T04:56:42.157Z,16.4
2018-11-05T04:57:32.440Z,16.4
2018-11-05T04:58:22.735Z,16.4
2018-11-05T04:59:13.500Z,16.4
2018-11-05T05:00:02.645Z,16.4
2018-11-05T05:00:52.926Z,16.4
2018-11-05T05:01:42.440Z,16.4
2018-11-05T05:02:32.480Z,16.4
2018-11-05T05:03:23.876Z,16.4
2018-11-05T05:04:13.115Z,16.3
2018-11-05T05:05:02.990Z,16.3
2018-11-05T05:05:52.979Z,16.4
2018-11-05T05:06:42.665Z,16.4
2018-11-05T05:07:32.548Z,16.3
2018-11-05T05:09:13.239Z,16.3
2018-11-05T05:10:03.655Z,16.3
2018-11-05T05:10:51.992Z,16.3
2018-11-05T05:11:43.552Z,16.3
2018-11-05T05:12:34.122Z,16.3
2018-11-05T05:13:24.672Z,16.3
2018-11-05T05:14:14.155Z,16.3
2018-11-05T05:15:04.204Z,16.3
2018-11-05T05:15:54.694Z,16.3
2018-11-05T05:16:45.069Z,16.3
2018-11-05T05:17:34.698Z,16.3
2018-11-05T05:18:24.927Z,16.3
2018-11-05T05:19:15.132Z,16.3
2018-11-05T05:20:04.794Z,16.3
2018-11-05T05:20:55.611Z,16.3
2018-11-05T05:21:44.904Z,16.3
2018-11-05T05:22:36.806Z,16.3
2018-11-05T05:23:24.661Z,16.3
2018-11-05T05:24:15.168Z,16.3
2018-11-05T05:25:05.763Z,16.3
2018-11-05T05:25:54.635Z,16.3
2018-11-05T05:26:45.572Z,16.3
2018-11-05T05:27:34.951Z,16.3
2018-11-05T05:28:24.541Z,16.3
2018-11-05T05:29:15.321Z,16.3
2018-11-05T05:30:04.663Z,16.3
2018-11-05T05:30:55.426Z,16.3
2018-11-05T05:31:44.924Z,16.3
2018-11-05T05:32:35.741Z,16.3
2018-11-05T05:33:25.022Z,16.3
2018-11-05T05:34:15.541Z,16.3
2018-11-05T05:35:06.004Z,16.3
2018-11-05T05:35:54.890Z,16.3
2018-11-05T05:36:45.605Z,16.3
2018-11-05T05:37:34.569Z,16.3
2018-11-05T05:38:26.143Z,16.3
2018-11-05T05:39:16.260Z,16.3
2018-11-05T05:40:05.573Z,16.3
2018-11-05T05:40:57.678Z,16.3
2018-11-05T05:41:45.859Z,16.3
2018-11-05T05:42:36.180Z,16.3
2018-11-05T05:43:26.177Z,16.3
2018-11-05T05:44:16.454Z,16.3
2018-11-05T05:45:06.412Z,16.3
2018-11-05T05:45:55.862Z,16.3
2018-11-05T05:46:45.595Z,16.3
2018-11-05T05:47:35.832Z,16.3
2018-11-05T05:48:26.797Z,16.3
2018-11-05T05:49:16.283Z,16.2
2018-11-05T05:50:08.798Z,16.3
2018-11-05T05:50:56.260Z,16.3
2018-11-05T05:51:46.631Z,16.3
2018-11-05T05:52:36.807Z,16.3
2018-11-05T05:53:26.742Z,16.3
2018-11-05T05:54:16.430Z,16.3
2018-11-05T05:55:07.009Z,16.3
2018-11-05T05:55:57.190Z,16.2
2018-11-05T05:56:45.814Z,16.2
2018-11-05T05:57:36.764Z,16.2
2018-11-05T05:58:27.006Z,16.2
2018-11-05T05:59:15.817Z,16.2
2018-11-05T06:00:09.864Z,16.2
2018-11-05T06:00:55.923Z,16.2
2018-11-05T06:01:46.782Z,16.2
2018-11-05T06:02:36.344Z,16.2
2018-11-05T06:03:26.411Z,16.2
2018-11-05T06:04:16.934Z,16.2
2018-11-05T06:05:07.564Z,16.2
2018-11-05T06:05:58.289Z,16.2
2018-11-05T06:06:48.309Z,16.2
2018-11-05T06:07:37.784Z,16.2
2018-11-05T06:08:26.186Z,16.2
2018-11-05T06:09:17.381Z,16.2
2018-11-05T06:10:07.708Z,16.2
2018-11-05T06:10:57.458Z,16.2
2018-11-05T06:11:46.757Z,16.2
2018-11-05T06:12:38.734Z,16.2
2018-11-05T06:13:27.429Z,16.2
2018-11-05T06:14:18.359Z,16.2
2018-11-05T06:15:08.092Z,16.2
2018-11-05T06:16:00.620Z,16.2
2018-11-05T06:16:47.316Z,16.2
2018-11-05T06:17:38.742Z,16.2
2018-11-05T06:18:28.201Z,16.2
2018-11-05T06:19:18.308Z,16.2
2018-11-05T06:20:07.716Z,16.2
2018-11-05T06:20:58.655Z,16.2
2018-11-05T06:21:51.160Z,16.1
2018-11-05T06:22:38.541Z,16.2
2018-11-05T06:23:28.482Z,16.2
2018-11-05T06:24:17.866Z,16.2
2018-11-05T06:25:08.477Z,16.2
2018-11-05T06:26:00.310Z,16.2
2018-11-05T06:26:47.979Z,16.1
2018-11-05T06:27:39.430Z,16.2
2018-11-05T06:28:31.121Z,16.2
2018-11-05T06:29:19.022Z,16.2
2018-11-05T06:30:09.860Z,16.1
2018-11-05T06:31:00.525Z,16.1
2018-11-05T06:31:49.894Z,16.1
2018-11-05T06:32:42.013Z,16.2
2018-11-05T06:33:30.425Z,16.1
2018-11-05T06:34:19.590Z,16.2
2018-11-05T06:35:09.899Z,16.2
2018-11-05T06:35:59.924Z,16.1
2018-11-05T06:36:50.480Z,16.1
2018-11-05T06:37:40.492Z,16.1
2018-11-05T06:38:29.677Z,16.2
2018-11-05T06:39:20.307Z,16.1
2018-11-05T06:40:09.336Z,16.1
2018-11-05T06:41:01.411Z,16.1
2018-11-05T06:41:52.453Z,16.1
2018-11-05T06:42:40.100Z,16.1
2018-11-05T06:43:31.315Z,16.1
2018-11-05T06:44:23.052Z,16.1
2018-11-05T06:45:10.693Z,16.1
2018-11-05T06:46:01.204Z,16.1
2018-11-05T06:46:50.659Z,16.1
2018-11-05T06:47:40.669Z,16.1
2018-11-05T06:48:31.379Z,16.1
2018-11-05T06:49:20.339Z,16.1
2018-11-05T06:50:10.479Z,16.1
2018-11-05T06:51:01.712Z,16.1
2018-11-05T06:51:50.424Z,16.1
2018-11-05T06:52:41.269Z,16.1
2018-11-05T06:53:30.684Z,16.1
2018-11-05T06:54:20.818Z,16.1
2018-11-05T06:55:10.768Z,16.1
2018-11-05T06:56:02.388Z,16.1
2018-11-05T06:56:50.963Z,16.1
2018-11-05T06:57:43.078Z,16.1
2018-11-05T06:58:32.171Z,16.1
2018-11-05T06:59:21.250Z,16.1
2018-11-05T07:00:11.365Z,16.1
2018-11-05T07:01:01.896Z,16.1
2018-11-05T07:01:51.707Z,16.1
2018-11-05T07:02:41.391Z,16.1
2018-11-05T07:03:30.949Z,16.1
2018-11-05T07:04:21.827Z,16.1
2018-11-05T07:05:10.618Z,16.1
2018-11-05T07:06:04.498Z,16.1
2018-11-05T07:06:51.504Z,16.1
2018-11-05T07:07:41.994Z,16.1
2018-11-05T07:08:31.496Z,16.1
2018-11-05T07:09:21.210Z,16.1
2018-11-05T07:10:12.091Z,16.1
2018-11-05T07:11:01.312Z,16.1
2018-11-05T07:11:51.481Z,16.1
2018-11-05T07:12:42.731Z,16.1
2018-11-05T07:13:33.183Z,16.1
2018-11-05T07:14:22.056Z,16.1
2018-11-05T07:15:12.425Z,16.1
2018-11-05T07:16:01.707Z,16.1
2018-11-05T07:16:52.906Z,16.1
2018-11-05T07:17:43.260Z,16.1
2018-11-05T07:18:35.788Z,16.1
2018-11-05T07:19:24.463Z,16.1
2018-11-05T07:20:11.883Z,16.1
2018-11-05T07:21:02.048Z,16.1
2018-11-05T07:21:50.598Z,16.1
2018-11-05T07:22:43.293Z,16.1
2018-11-05T07:23:33.668Z,16.1
2018-11-05T07:24:22.898Z,16.1
2018-11-05T07:25:12.322Z,16.1
2018-11-05T07:26:01.815Z,16.1
2018-11-05T07:26:52.696Z,16.1
2018-11-05T07:27:45.002Z,16.1
2018-11-05T07:28:33.398Z,16.1
2018-11-05T07:29:23.275Z,16.1
2018-11-05T07:30:13.860Z,16.1
2018-11-05T07:31:03.220Z,16.1
2018-11-05T07:31:52.863Z,16.1
2018-11-05T07:32:43.225Z,16.1
2018-11-05T07:33:37.121Z,16.1
2018-11-05T07:34:26.072Z,16.1
2018-11-05T07:35:12.753Z,16.1
2018-11-05T07:36:03.433Z,16.1
2018-11-05T07:36:53.665Z,16.1
2018-11-05T07:37:44.222Z,16.1
2018-11-05T07:38:34.454Z,16.1
2018-11-05T07:39:23.920Z,16.1
2018-11-05T07:40:13.997Z,16.1
2018-11-05T07:41:03.773Z,16.1
2018-11-05T07:41:53.468Z,16.1
2018-11-05T07:42:44.647Z,16.1
2018-11-05T07:43:35.395Z,16.1
2018-11-05T07:44:24.775Z,16.1
2018-11-05T07:45:14.817Z,16.1
2018-11-05T07:46:05.150Z,16.1
2018-11-05T07:46:53.665Z,16.1
2018-11-05T07:47:44.587Z,16.1
2018-11-05T07:48:34.660Z,16.1
2018-11-05T07:49:25.116Z,16.1
2018-11-05T07:50:17.071Z,16.1
2018-11-05T07:51:06.007Z,16.1
2018-11-05T07:51:54.707Z,16.1
2018-11-05T07:52:45.531Z,16.1
2018-11-05T07:53:34.702Z,16.1
2018-11-05T07:54:26.061Z,16.1
2018-11-05T07:55:14.393Z,16.1
2018-11-05T07:56:05.980Z,16.1
2018-11-05T07:56:58.644Z,16.1
2018-11-05T07:57:45.902Z,16.1
2018-11-05T07:58:36.580Z,16.1
2018-11-05T07:59:25.237Z,16.1
2018-11-05T08:00:16.767Z,16.1
2018-11-05T08:01:06.246Z,16.1
2018-11-05T08:01:55.951Z,16.1
2018-11-05T08:02:47.456Z,16.1
2018-11-05T08:03:35.209Z,16.1
2018-11-05T08:04:27.598Z,16.1
2018-11-05T08:05:16.703Z,16.1
2018-11-05T08:06:06.121Z,16.1
2018-11-05T08:06:56.476Z,16.1
2018-11-05T08:07:47.396Z,16.1
2018-11-05T08:08:38.971Z,16.1
2018-11-05T08:09:27.339Z,16.1
2018-11-05T08:10:16.991Z,16.1
2018-11-05T08:11:06.911Z,16.1
2018-11-05T08:11:57.083Z,16.1
2018-11-05T08:12:47.347Z,16.1
2018-11-05T08:13:35.920Z,16.1
2018-11-05T08:14:29.388Z,16.1
2018-11-05T08:15:16.405Z,16.1
2018-11-05T08:16:07.003Z,16.1
2018-11-05T08:16:56.698Z,16.1
2018-11-05T08:17:46.499Z,16.1
2018-11-05T08:18:36.920Z,16.1
2018-11-05T08:19:28.145Z,16.1
2018-11-05T08:20:17.306Z,16.1
2018-11-05T08:21:07.787Z,16.1
2018-11-05T08:21:58.002Z,16.1
2018-11-05T08:22:46.602Z,16.1
2018-11-05T08:23:38.107Z,16.1
2018-11-05T08:24:26.987Z,16.1
2018-11-05T08:25:17.658Z,16.1
2018-11-05T08:26:08.630Z,16.1
2018-11-05T08:26:58.625Z,16.1
2018-11-05T08:27:48.704Z,16.1
2018-11-05T08:28:38.173Z,16.1
2018-11-05T08:29:27.625Z,16.1
2018-11-05T08:30:17.312Z,16.1
2018-11-05T08:31:07.647Z,16.1
2018-11-05T08:31:59.024Z,16.1
2018-11-05T08:32:48.863Z,16.1
2018-11-05T08:33:37.794Z,16.1
2018-11-05T08:34:29.211Z,16.1
2018-11-05T08:35:17.695Z,16.1
2018-11-05T08:36:08.908Z,16.1
2018-11-05T08:36:59.075Z,16.1
2018-11-05T08:37:48.766Z,16.1
2018-11-05T08:38:38.646Z,16.1
2018-11-05T08:39:29.668Z,16.1
2018-11-05T08:40:21.202Z,16.1
2018-11-05T08:41:09.169Z,16.1
2018-11-05T08:41:58.981Z,16.1
2018-11-05T08:42:49.459Z,16.1
2018-11-05T08:43:38.603Z,16.1
2018-11-05T08:44:28.933Z,16.1
2018-11-05T08:45:19.807Z,16.1
2018-11-05T08:46:09.236Z,16.1
2018-11-05T08:47:02.078Z,16.1
2018-11-05T08:47:48.991Z,16.1
2018-11-05T08:48:39.070Z,16.1
2018-11-05T08:49:30.251Z,16.1
2018-11-05T08:50:22.745Z,16.1
2018-11-05T08:51:17.090Z,16.1
2018-11-05T08:51:59.585Z,16.1
2018-11-05T09:08:42.350Z,16.2
2018-11-05T09:09:32.814Z,16.2
2018-11-05T09:10:26.334Z,16.2
2018-11-05T09:11:17.002Z,16.2
2018-11-05T09:12:03.613Z,16.2
2018-11-05T09:12:53.793Z,16.2
2018-11-05T09:13:44.225Z,16.2
2018-11-05T09:14:33.025Z,16.2
2018-11-05T09:15:24.164Z,16.2
2018-11-05T09:16:15.617Z,16.2
2018-11-05T09:17:03.722Z,16.2
2018-11-05T09:17:53.554Z,16.2
2018-11-05T09:18:43.851Z,16.2
2018-11-05T09:19:33.240Z,16.2
2018-11-05T09:20:24.039Z,16.2
2018-11-05T09:21:13.935Z,16.2
2018-11-05T09:22:04.437Z,16.2
2018-11-05T09:22:54.156Z,16.2
2018-11-05T09:23:44.228Z,16.2
2018-11-05T09:24:34.143Z,16.2
2018-11-05T09:25:24.726Z,16.2
2018-11-05T09:26:13.524Z,16.2
2018-11-05T09:27:03.943Z,16.2
2018-11-05T09:27:55.724Z,16.2
2018-11-05T09:28:44.926Z,16.2
2018-11-05T09:29:34.428Z,16.2
2018-11-05T09:30:25.246Z,16.2
2018-11-05T09:31:14.939Z,16.2
2018-11-05T09:32:04.644Z,16.2
2018-11-05T09:32:54.170Z,16.2
2018-11-05T09:33:43.534Z,16.2
2018-11-05T09:34:34.758Z,16.2
2018-11-05T09:35:24.811Z,16.2
2018-11-05T09:36:15.196Z,16.2
2018-11-05T09:37:04.696Z,16.2
2018-11-05T09:37:54.734Z,16.2
2018-11-05T09:38:45.671Z,16.2
2018-11-05T09:39:34.020Z,16.2
2018-11-05T09:40:24.695Z,16.2
2018-11-05T09:41:14.911Z,16.2
2018-11-05T09:42:06.350Z,16.2
2018-11-05T09:42:58.683Z,16.2
2018-11-05T09:43:45.000Z,16.2
2018-11-05T09:44:35.503Z,16.2
2018-11-05T09:45:25.943Z,16.3
2018-11-05T09:46:15.608Z,16.3
2018-11-05T09:47:05.813Z,16.2
2018-11-05T09:47:56.523Z,16.2
2018-11-05T09:48:45.631Z,16.2
2018-11-05T09:49:37.737Z,16.2
2018-11-05T09:50:27.100Z,16.3
2018-11-05T09:51:16.961Z,16.2
2018-11-05T09:52:05.902Z,16.2
2018-11-05T09:52:56.495Z,16.3
2018-11-05T09:53:46.499Z,16.2
2018-11-05T09:54:36.737Z,16.2
2018-11-05T09:55:27.084Z,16.2
2018-11-05T09:56:17.692Z,16.3
2018-11-05T09:57:07.505Z,16.2
2018-11-05T09:57:56.370Z,16.3
2018-11-05T09:58:47.602Z,16.3
2018-11-05T09:59:37.339Z,16.3
2018-11-05T10:00:27.685Z,16.3
2018-11-05T10:01:17.186Z,16.3
2018-11-05T10:02:07.189Z,16.3
2018-11-05T10:03:01.254Z,16.3
2018-11-05T10:03:52.153Z,16.3
2018-11-05T10:04:41.541Z,16.3
2018-11-05T10:05:28.007Z,16.3
2018-11-05T10:06:15.961Z,16.3
2018-11-05T10:07:07.689Z,16.3
2018-11-05T10:07:58.311Z,16.3
2018-11-05T10:08:48.029Z,16.3
2018-11-05T10:09:39.658Z,16.3
2018-11-05T10:10:32.265Z,16.3
2018-11-05T10:11:18.265Z,16.3
2018-11-05T10:12:08.767Z,16.3
2018-11-05T10:12:58.542Z,16.3
2018-11-05T10:13:49.189Z,16.3
2018-11-05T10:14:37.470Z,16.3
2018-11-05T10:15:29.633Z,16.3
2018-11-05T10:16:18.149Z,16.3
2018-11-05T10:17:08.833Z,16.3
2018-11-05T10:17:59.081Z,16.3
2018-11-05T10:18:48.026Z,16.3
2018-11-05T10:19:39.011Z,16.3
2018-11-05T10:20:27.454Z,16.3
2018-11-05T10:21:18.008Z,16.3
2018-11-05T10:22:07.423Z,16.3
2018-11-05T10:22:57.868Z,16.3
2018-11-05T10:23:48.935Z,16.3
2018-11-05T10:24:39.998Z,16.3
2018-11-05T10:25:27.945Z,16.3
2018-11-05T10:26:19.517Z,16.3
2018-11-05T10:27:08.379Z,16.3
2018-11-05T10:27:58.601Z,16.3
2018-11-05T10:28:47.445Z,16.3
2018-11-05T10:29:39.268Z,16.3
2018-11-05T10:30:29.722Z,16.3
2018-11-05T10:31:18.627Z,16.3
2018-11-05T10:32:09.012Z,16.3
2018-11-05T10:33:00.019Z,16.3
2018-11-05T10:33:50.169Z,16.3
2018-11-05T10:34:39.838Z,16.3
2018-11-05T10:35:27.871Z,16.3
2018-11-05T10:36:19.029Z,16.3
2018-11-05T10:37:09.765Z,16.3
2018-11-05T10:37:58.823Z,16.3
2018-11-05T10:38:49.495Z,16.3
2018-11-05T10:39:39.634Z,16.3
2018-11-05T10:40:31.852Z,16.3
2018-11-05T10:41:20.125Z,16.3
2018-11-05T10:42:10.194Z,16.3
2018-11-05T10:42:59.724Z,16.3
2018-11-05T10:43:51.610Z,16.3
2018-11-05T10:44:40.577Z,16.3
2018-11-05T10:45:30.767Z,16.3
2018-11-05T10:46:23.081Z,16.3
2018-11-05T10:47:09.399Z,16.3
2018-11-05T10:48:00.731Z,16.3
2018-11-05T10:48:50.183Z,16.3
2018-11-05T10:49:41.026Z,16.3
2018-11-05T10:50:33.071Z,16.3
2018-11-05T10:51:23.410Z,16.3
2018-11-05T10:52:18.255Z,16.3
2018-11-05T10:53:01.272Z,16.3
2018-11-05T10:53:51.461Z,16.3
2018-11-05T10:54:41.953Z,16.3
2018-11-05T10:55:32.023Z,16.3
2018-11-05T10:56:20.511Z,16.3
2018-11-05T10:57:12.714Z,16.3
2018-11-05T10:58:03.286Z,16.3
2018-11-05T10:58:51.661Z,16.3
2018-11-05T10:59:42.491Z,16.3
2018-11-05T11:00:30.912Z,16.3
2018-11-05T11:01:21.636Z,16.3
2018-11-05T11:02:11.831Z,16.3
2018-11-05T11:03:02.516Z,16.3
2018-11-05T11:03:52.821Z,16.3
2018-11-05T11:04:41.141Z,16.4
2018-11-05T11:05:31.400Z,16.3
2018-11-05T11:06:22.242Z,16.4
2018-11-05T11:07:12.804Z,16.3
2018-11-05T11:08:00.846Z,16.4
2018-11-05T11:08:52.667Z,16.4
2018-11-05T11:09:43.256Z,16.4
2018-11-05T11:10:32.233Z,16.4
2018-11-05T11:11:21.326Z,16.4
2018-11-05T11:12:12.521Z,16.4
2018-11-05T11:13:01.927Z,16.4
2018-11-05T11:13:52.365Z,16.4
2018-11-05T11:14:43.271Z,16.4
2018-11-05T11:15:33.557Z,16.4
2018-11-05T11:16:22.301Z,16.4
2018-11-05T11:17:12.780Z,16.4
2018-11-05T11:18:02.153Z,16.4
2018-11-05T11:18:52.802Z,16.4
2018-11-05T11:19:41.892Z,16.4
2018-11-05T11:20:32.747Z,16.4
2018-11-05T11:21:24.095Z,16.4
2018-11-05T11:22:13.976Z,16.4
2018-11-05T11:23:02.176Z,16.4
2018-11-05T11:23:53.357Z,16.4
2018-11-05T11:24:43.122Z,16.4
2018-11-05T11:25:32.753Z,16.4
2018-11-05T11:26:22.686Z,16.4
2018-11-05T11:27:12.131Z,16.4
2018-11-05T11:28:08.971Z,16.4
2018-11-05T11:28:55.287Z,16.4
2018-11-05T11:29:44.207Z,16.4
2018-11-05T11:30:34.467Z,16.4
2018-11-05T11:31:23.954Z,16.4
2018-11-05T11:32:13.773Z,16.4
2018-11-05T11:33:02.927Z,16.4
2018-11-05T11:33:53.856Z,16.4
2018-11-05T11:34:43.731Z,16.4
2018-11-05T11:35:33.426Z,16.4
2018-11-05T11:36:25.075Z,16.4
2018-11-05T11:37:15.078Z,16.4
2018-11-05T11:38:03.451Z,16.4
2018-11-05T11:38:54.748Z,16.4
2018-11-05T11:39:44.643Z,16.4
2018-11-05T11:40:35.006Z,16.4
2018-11-05T11:41:25.011Z,16.4
2018-11-05T11:42:14.501Z,16.4
2018-11-05T11:43:04.417Z,16.4
2018-11-05T11:43:54.857Z,16.4
2018-11-05T11:44:45.780Z,16.4
2018-11-05T11:45:34.455Z,16.4
2018-11-05T11:46:24.547Z,16.4
2018-11-05T11:47:14.933Z,16.4
2018-11-05T11:48:04.881Z,16.4
2018-11-05T11:48:56.083Z,16.4
2018-11-05T11:49:45.218Z,16.4
2018-11-05T11:50:35.684Z,16.4
2018-11-05T11:51:25.775Z,16.4
2018-11-05T11:52:15.445Z,16.4
2018-11-05T11:53:07.149Z,16.4
2018-11-05T11:53:55.963Z,16.4
2018-11-05T11:54:45.720Z,16.4
2018-11-05T11:55:35.924Z,16.4
2018-11-05T11:56:25.390Z,16.4
2018-11-05T11:57:15.903Z,16.4
2018-11-05T11:58:05.963Z,16.4
2018-11-05T11:58:56.323Z,16.4
2018-11-05T11:59:46.671Z,16.4
2018-11-05T12:00:36.090Z,16.4
2018-11-05T12:01:26.062Z,16.4
2018-11-05T12:02:16.986Z,16.4
2018-11-05T12:03:05.849Z,16.4
2018-11-05T12:03:56.485Z,16.4
2018-11-05T12:04:46.220Z,16.4
2018-11-05T12:05:36.852Z,16.4
2018-11-05T12:06:27.153Z,16.4
2018-11-05T12:07:15.710Z,16.4
2018-11-05T12:08:06.742Z,16.5
2018-11-05T12:08:56.435Z,16.4
2018-11-05T12:09:47.307Z,16.4
2018-11-05T12:10:35.764Z,16.4
2018-11-05T12:11:26.653Z,16.4
2018-11-05T12:12:16.169Z,16.5
2018-11-05T12:13:07.372Z,16.4
2018-11-05T12:13:57.962Z,16.4
2018-11-05T12:14:52.512Z,16.5
2018-11-05T12:15:35.394Z,16.5
2018-11-05T12:16:28.066Z,16.4
2018-11-05T12:17:16.805Z,16.4
2018-11-05T12:18:07.631Z,16.4
2018-11-05T12:18:57.685Z,16.5
2018-11-05T12:19:47.765Z,16.5
2018-11-05T12:20:37.026Z,16.5
2018-11-05T12:21:26.635Z,16.5
2018-11-05T12:22:17.792Z,16.5
2018-11-05T12:23:07.571Z,16.5